Gorham, IL (62940)

10:35 AM CDT on October 23, 2014 (GMT -0500)
MesoWest Gorham (IL 3 @ UP/Missouri RR IL US ILDOT | Change Station
CLOSE
Current Station
Personal Weather Station
Location: Gorham, IL
Elevation: 379 ft
Nearby Weather Stations

Elev 379 ft 37.70 °N, 89.47 °W | Updated 46 minutes ago

Partly Cloudy
Partly Cloudy
48 °F
Feels Like 47 °F
N
4
Wind Variable Wind from SE
Gusts 6.0 mph

Today
High -- | Low -- °F
--% Chance of Precip.
Yesterday
High -- | Low -- °F
Precip. -- in
7:13 AM 6:09 PM
Waning Crescent, 0% visible
Pressure 30.26 in
Visibility 20.0 miles
Clouds Scattered Clouds 12000 ft
Windchill 47 °F
Dew Point 46 °F
Humidity 93%
Rainfall -999.00 in
Snow Depth Not available.
UV 2 out of 12
Pollen 1.50 out of 12
Air Quality Not available.
Flu Activity No Activity
METAR KMWA 231455Z 16005KT 20SM SCT120 12/07 A3026

More Conditions Fewer Conditions

Pressure 30.26 in
Visibility 20.0 miles
Clouds Scattered Clouds 12000 ft
Windchill 47 °F
Dew Point 46 °F
Humidity 93%
Rainfall -999.00 in
Snow Depth Not available.
UV 2 out of 12
Pollen 1.50 out of 12
Air Quality Not available.
Flu Activity No Activity
METAR KMWA 231455Z 16005KT 20SM SCT120 12/07 A3026

More Conditions Fewer Conditions

10-Day Weather Forecast

Almanac

Astronomy

Oct. 23, 2014 Rise Set
Actual Time 7:13 AM CDT 6:09 PM CDT
Civil Twilight 6:47 AM CDT 6:36 PM CDT
Nautical Twilight 6:16 AM CDT 7:07 PM CDT
Astronomical Twilight 5:46 AM CDT 7:37 PM CDT
Moon 6:53 AM CDT 6:11 PM CDT
Length of Visible Light 11h 49m
Length of Day
10h 55m
Tomorrow will be 2m 15s shorter.
Waning Crescent, 0% of the Moon is Illuminated
Today
Waning Crescent
Oct 23
New
Oct 30
First Quarter
Nov 6
Full
Nov 14
Last Quarter

Today's Extremes

State Highs State Lows

Community

WunderPhotos

Upload Photos

1,764,285 photos uploaded!

Nearby

Snow Depth

Station Depth Elevation
No new snow has been reported.

Earthquake Activity

City Distance Mag. Time & Date
No recent earthquake activity has been reported nearby.
Minimum magnitude displayed is 2.5.

Coastal Water Temperatures

Place Temperature
No Stations Reporting

Nearby Weather Stations